createdAt,value
2018-04-08T00:00:40.756Z,100520.12
2018-04-08T00:05:42.073Z,100524.75
2018-04-08T00:10:43.364Z,100516.96
2018-04-08T00:15:44.650Z,100508.61
2018-04-08T00:20:45.955Z,100510.18
2018-04-08T00:25:47.323Z,100503.61
2018-04-08T00:30:48.664Z,100503.89
2018-04-08T00:35:49.983Z,100506.19
2018-04-08T00:40:51.305Z,100504.41
2018-04-08T00:45:52.624Z,100489.52
2018-04-08T00:50:53.984Z,100492.80
2018-04-08T00:55:55.310Z,100496.62
2018-04-08T01:00:56.653Z,100488.50
2018-04-08T01:05:57.992Z,100484.36
2018-04-08T01:10:59.309Z,100478.17
2018-04-08T01:16:00.644Z,100482.18
2018-04-08T01:21:02.721Z,100466.88
2018-04-08T01:26:04.060Z,100469.34
2018-04-08T01:31:05.380Z,100467.19
2018-04-08T01:36:06.708Z,100464.83
2018-04-08T01:41:08.011Z,100463.66
2018-04-08T01:46:17.093Z,100462.64
2018-04-08T01:51:19.134Z,100467.70
2018-04-08T01:56:20.467Z,100451.83
2018-04-08T02:01:21.869Z,100457.31
2018-04-08T02:06:23.947Z,100463.61
2018-04-08T02:11:25.295Z,100462.56
2018-04-08T02:16:26.604Z,100454.63
2018-04-08T02:21:27.911Z,100454.40
2018-04-08T02:26:29.219Z,100459.88
2018-04-08T02:31:30.567Z,100455.45
2018-04-08T02:36:31.919Z,100459.20
2018-04-08T02:41:33.968Z,100460.75
2018-04-08T02:51:42.972Z,100452.73
2018-04-08T02:56:44.283Z,100451.49
2018-04-08T03:01:45.627Z,100448.06
2018-04-08T03:06:47.679Z,100446.99
2018-04-08T03:11:48.991Z,100449.55
2018-04-08T03:16:50.335Z,100446.39
2018-04-08T03:21:51.690Z,100445.91
2018-04-08T03:26:53.004Z,100440.65
2018-04-08T03:31:54.346Z,100439.79
2018-04-08T03:36:55.721Z,100440.06
2018-04-08T03:41:57.032Z,100435.83
2018-04-08T03:46:58.542Z,100432.80
2018-04-08T03:51:59.863Z,100437.99
2018-04-08T03:57:01.178Z,100436.55
2018-04-08T04:02:02.543Z,100429.27
2018-04-08T04:07:03.848Z,100425.45
2018-04-08T04:12:05.182Z,100426.65
2018-04-08T04:17:06.503Z,100427.88
2018-04-08T04:22:26.327Z,100425.23
2018-04-08T04:27:27.647Z,100421.59
2018-04-08T04:32:28.999Z,100430.37
2018-04-08T04:37:31.103Z,100423.59
2018-04-08T04:42:33.141Z,100421.66
2018-04-08T04:47:34.743Z,100422.97
2018-04-08T04:52:36.079Z,100420.58
2018-04-08T04:57:37.401Z,100416.92
2018-04-08T05:02:39.495Z,100414.80
2018-04-08T05:07:41.532Z,100418.12
2018-04-08T05:12:43.036Z,100413.91
2018-04-08T05:17:44.404Z,100416.11
2018-04-08T05:22:45.836Z,100422.90
2018-04-08T05:27:47.174Z,100417.78
2018-04-08T05:32:48.548Z,100423.59
2018-04-08T05:37:49.867Z,100430.16
2018-04-08T05:42:51.230Z,100426.21
2018-04-08T05:47:53.279Z,100424.92
2018-04-08T05:52:54.619Z,100416.34
2018-04-08T05:57:56.702Z,100416.91
2018-04-08T06:02:58.012Z,100413.00
2018-04-08T06:08:00.075Z,100412.22
2018-04-08T06:13:01.383Z,100410.32
2018-04-08T06:18:02.755Z,100416.77
2018-04-08T06:23:04.115Z,100413.06
2018-04-08T06:28:05.443Z,100410.58
2018-04-08T06:33:06.748Z,100404.66
2018-04-08T06:38:08.091Z,100408.39
2018-04-08T06:43:09.515Z,100408.75
2018-04-08T06:48:10.854Z,100409.92
2018-04-08T06:53:12.956Z,100411.30
2018-04-08T06:58:15.011Z,100408.18
2018-04-08T07:03:16.339Z,100399.83
2018-04-08T07:08:17.640Z,100393.69
2018-04-08T07:13:19.675Z,100392.12
2018-04-08T07:18:21.076Z,100396.11
2018-04-08T07:23:22.445Z,100392.02
2018-04-08T07:28:23.748Z,100390.54
2018-04-08T07:33:25.063Z,100378.45
2018-04-08T07:38:26.356Z,100383.36
2018-04-08T07:43:27.685Z,100387.42
2018-04-08T07:48:29.753Z,100385.61
2018-04-08T07:53:31.086Z,100384.20
2018-04-08T07:58:32.383Z,100383.77
2018-04-08T08:03:33.699Z,100380.84
2018-04-08T08:08:35.004Z,100381.30
2018-04-08T08:13:36.319Z,100380.45
2018-04-08T08:18:38.382Z,100382.16
2018-04-08T08:23:39.705Z,100382.97
2018-04-08T08:28:41.014Z,100385.39
2018-04-08T08:33:43.069Z,100383.44
2018-04-08T08:38:44.363Z,100391.93
2018-04-08T08:43:45.660Z,100385.86
2018-04-08T08:48:46.979Z,100390.67
2018-04-08T08:53:49.007Z,100383.67
2018-04-08T08:58:50.332Z,100387.28
2018-04-08T09:03:51.655Z,100390.61
2018-04-08T09:08:52.998Z,100381.58
2018-04-08T09:13:54.296Z,100381.58
2018-04-08T09:19:07.433Z,100371.86
2018-04-08T09:24:12.664Z,100376.45
2018-04-08T09:29:13.953Z,100379.18
2018-04-08T09:34:15.263Z,100369.38
2018-04-08T09:39:17.322Z,100372.94
2018-04-08T09:44:18.647Z,100372.73
2018-04-08T09:49:19.951Z,100366.62
2018-04-08T09:54:22.003Z,100366.47
2018-04-08T09:59:23.409Z,100367.36
2018-04-08T10:04:24.726Z,100354.57
2018-04-08T10:09:26.147Z,100350.84
2018-04-08T10:14:27.459Z,100348.47
2018-04-08T10:19:28.792Z,100348.23
2018-04-08T10:24:30.124Z,100348.45
2018-04-08T10:29:31.443Z,100349.14
2018-04-08T10:34:32.767Z,100353.38
2018-04-08T10:39:34.094Z,100352.37
2018-04-08T10:44:35.436Z,100343.48
2018-04-08T10:49:36.759Z,100345.23
2018-04-08T10:54:38.820Z,100344.46
2018-04-08T10:59:40.158Z,100336.58
2018-04-08T11:04:41.467Z,100336.77
2018-04-08T11:09:42.800Z,100334.30
2018-04-08T11:14:44.124Z,100334.70
2018-04-08T11:19:45.431Z,100325.70
2018-04-08T11:24:46.852Z,100321.45
2018-04-08T11:29:48.174Z,100309.07
2018-04-08T11:34:50.243Z,100306.25
2018-04-08T11:39:51.591Z,100306.47
2018-04-08T11:44:52.905Z,100302.71
2018-04-08T11:49:54.231Z,100300.16
2018-04-08T11:54:55.535Z,100302.78
2018-04-08T11:59:57.701Z,100294.01
2018-04-08T12:04:59.018Z,100281.53
2018-04-08T12:10:00.339Z,100280.13
2018-04-08T12:15:01.655Z,100282.73
2018-04-08T12:20:03.004Z,100279.06
2018-04-08T12:25:05.115Z,100278.15
2018-04-08T12:30:07.418Z,100274.38
2018-04-08T12:35:09.692Z,100261.72
2018-04-08T12:40:11.244Z,100273.70
2018-04-08T12:45:13.503Z,100269.46
2018-04-08T12:50:14.839Z,100262.98
2018-04-08T12:55:16.899Z,100264.85
2018-04-08T13:00:18.369Z,100255.91
2018-04-08T13:05:19.696Z,100251.14
2018-04-08T13:10:21.030Z,100247.21
2018-04-08T13:15:22.411Z,100243.20
2018-04-08T13:20:24.496Z,100235.82
2018-04-08T13:25:25.892Z,100224.28
2018-04-08T13:30:27.961Z,100218.02
2018-04-08T13:35:29.288Z,100214.33
2018-04-08T13:40:31.366Z,100210.15
2018-04-08T13:45:32.688Z,100205.38
2018-04-08T13:50:34.749Z,100205.38
2018-04-08T13:55:36.087Z,100193.96
2018-04-08T14:00:38.219Z,100191.09
2018-04-08T14:05:39.554Z,100184.46
2018-04-08T14:10:40.889Z,100186.48
2018-04-08T14:15:42.187Z,100178.67
2018-04-08T14:20:43.512Z,100172.21
2018-04-08T14:25:44.823Z,100169.86
2018-04-08T14:30:46.186Z,100166.90
2018-04-08T14:35:47.515Z,100166.73
2018-04-08T14:40:49.587Z,100164.06
2018-04-08T14:45:50.921Z,100158.36
2018-04-08T14:50:53.011Z,100164.27
2018-04-08T14:55:54.347Z,100156.36
2018-04-08T15:00:55.718Z,100154.25
2018-04-08T15:05:57.054Z,100149.80
2018-04-08T15:10:58.380Z,100152.98
2018-04-08T15:16:00.448Z,100147.34
2018-04-08T15:21:01.777Z,100147.11
2018-04-08T15:26:03.875Z,100143.99
2018-04-08T15:31:05.202Z,100130.55
2018-04-08T15:36:06.534Z,100136.70
2018-04-08T15:41:07.926Z,100135.03
2018-04-08T15:46:09.268Z,100132.61
2018-04-08T15:51:10.632Z,100141.38
2018-04-08T15:56:11.964Z,100134.92
2018-04-08T16:01:13.291Z,100134.95
2018-04-08T16:06:14.590Z,100136.43
2018-04-08T16:11:16.315Z,100136.94
2018-04-08T16:16:18.507Z,100137.70
2018-04-08T16:21:20.571Z,100137.64
2018-04-08T16:26:21.865Z,100135.16
2018-04-08T16:31:23.180Z,100126.13
2018-04-08T16:36:24.499Z,100127.39
2018-04-08T16:41:26.552Z,100134.84
2018-04-08T16:46:27.911Z,100137.17
2018-04-08T16:51:29.937Z,100144.22
2018-04-08T16:56:31.300Z,100141.87
2018-04-08T17:01:32.628Z,100142.33
2018-04-08T17:06:33.943Z,100150.78
2018-04-08T17:11:36.405Z,100154.45
2018-04-08T17:16:37.786Z,100155.66
2018-04-08T17:21:39.110Z,100152.24
2018-04-08T17:26:40.432Z,100153.03
2018-04-08T17:31:41.751Z,100154.67
2018-04-08T17:36:43.047Z,100155.77
2018-04-08T17:41:44.343Z,100164.22
2018-04-08T17:46:46.513Z,100169.37
2018-04-08T17:51:47.843Z,100168.92
2018-04-08T17:56:49.172Z,100167.48
2018-04-08T18:01:50.632Z,100180.00
2018-04-08T18:06:51.923Z,100184.10
2018-04-08T18:11:53.368Z,100186.88
2018-04-08T18:16:54.703Z,100187.22
2018-04-08T18:21:56.004Z,100193.22
2018-04-08T18:26:57.390Z,100185.81
2018-04-08T18:31:58.724Z,100199.95
2018-04-08T18:37:00.015Z,100201.67
2018-04-08T18:42:02.072Z,100202.13
2018-04-08T18:47:03.838Z,100204.60
2018-04-08T18:52:06.631Z,100213.86
2018-04-08T18:57:07.982Z,100217.47
2018-04-08T19:02:09.435Z,100225.07
2018-04-08T19:07:11.630Z,100229.05
2018-04-08T19:12:13.047Z,100237.48
2018-04-08T19:17:21.246Z,100230.20
2018-04-08T19:22:22.611Z,100226.56
2018-04-08T19:27:29.883Z,100233.08
2018-04-08T19:32:31.302Z,100232.78
2018-04-08T19:37:33.355Z,100234.16
2018-04-08T19:42:34.679Z,100237.84
2018-04-08T19:47:35.990Z,100233.32
2018-04-08T19:52:38.036Z,100232.75
2018-04-08T19:57:39.322Z,100227.19
2018-04-08T20:02:40.627Z,100226.89
2018-04-08T20:07:41.919Z,100223.03
2018-04-08T20:12:43.224Z,100223.73
2018-04-08T20:17:44.519Z,100218.80
2018-04-08T20:22:45.831Z,100218.92
2018-04-08T20:27:47.119Z,100216.62
2018-04-08T20:32:48.430Z,100217.44
2018-04-08T20:37:49.731Z,100211.97
2018-04-08T20:42:51.071Z,100210.52
2018-04-08T20:47:53.135Z,100214.06
2018-04-08T20:52:54.456Z,100206.02
2018-04-08T20:57:55.763Z,100207.53
2018-04-08T21:02:57.810Z,100205.16
2018-04-08T21:07:59.135Z,100206.78
2018-04-08T21:13:00.479Z,100205.44
2018-04-08T21:18:02.536Z,100208.74
2018-04-08T21:23:04.610Z,100205.44
2018-04-08T21:28:05.915Z,100205.66
2018-04-08T21:33:07.261Z,100209.95
2018-04-08T21:38:08.583Z,100207.79
2018-04-08T21:43:09.919Z,100192.34
2018-04-08T21:48:11.984Z,100195.55
2018-04-08T21:53:13.332Z,100200.32
2018-04-08T21:58:14.662Z,100203.36
2018-04-08T22:03:15.974Z,100208.97
2018-04-08T22:08:17.334Z,100207.91
2018-04-08T22:13:18.657Z,100203.59
2018-04-08T22:18:19.983Z,100202.84
2018-04-08T22:23:21.317Z,100202.27
2018-04-08T22:28:22.629Z,100211.30
2018-04-08T22:33:23.951Z,100206.86
2018-04-08T22:38:25.252Z,100203.77
2018-04-08T22:43:26.567Z,100212.23
2018-04-08T22:48:27.863Z,100202.14
2018-04-08T22:53:29.215Z,100206.70
2018-04-08T22:58:30.586Z,100206.55
2018-04-08T23:03:32.635Z,100204.88
2018-04-08T23:08:33.944Z,100198.98
2018-04-08T23:13:35.320Z,100199.09
2018-04-08T23:18:36.623Z,100197.86
2018-04-08T23:23:37.964Z,100203.84
2018-04-08T23:28:39.267Z,100202.96
2018-04-08T23:33:40.568Z,100207.98
2018-04-08T23:38:41.878Z,100205.34
2018-04-08T23:43:43.203Z,100211.22
2018-04-08T23:48:45.255Z,100211.65
2018-04-08T23:53:46.568Z,100204.09
2018-04-08T23:58:47.915Z,100199.73
